createdAt,value
2023-01-19T00:02:14.985Z,99205.97
2023-01-19T00:04:42.802Z,99200.28
2023-01-19T00:07:09.301Z,99208.47
2023-01-19T00:09:35.816Z,99208.47
2023-01-19T00:12:02.308Z,99201.66
2023-01-19T00:14:28.810Z,99216.34
2023-01-19T00:16:55.244Z,99215.41
2023-01-19T00:19:21.710Z,99203.88
2023-01-19T00:21:49.582Z,99202.63
2023-01-19T00:24:16.124Z,99219.25
2023-01-19T00:26:42.606Z,99222.19
2023-01-19T00:29:10.475Z,99217.88
2023-01-19T00:31:37.287Z,99217.88
2023-01-19T00:34:04.549Z,99213.44
2023-01-19T00:36:31.468Z,99215.94
2023-01-19T00:38:59.531Z,99197.22
2023-01-19T00:41:26.034Z,99208.03
2023-01-19T00:43:52.521Z,99202.44
2023-01-19T00:46:18.998Z,99207.63
2023-01-19T00:48:45.438Z,99208.72
2023-01-19T00:51:12.120Z,99215.91
2023-01-19T00:53:38.618Z,99213.00
2023-01-19T00:56:07.439Z,99199.97
2023-01-19T00:58:34.110Z,99215.13
2023-01-19T01:01:01.014Z,99208.19
2023-01-19T01:03:27.577Z,99197.94
2023-01-19T01:05:54.104Z,99207.22
2023-01-19T01:08:20.597Z,99193.75
2023-01-19T01:10:47.275Z,99205.97
2023-01-19T01:13:20.234Z,99183.63
2023-01-19T01:15:50.007Z,99200.28
2023-01-19T01:18:16.570Z,99192.53
2023-01-19T01:20:43.126Z,99209.75
2023-01-19T01:23:10.827Z,99214.44
2023-01-19T01:25:37.358Z,99229.16
2023-01-19T01:28:03.992Z,99225.56
2023-01-19T01:30:34.803Z,99237.34
2023-01-19T01:33:01.667Z,99241.09
2023-01-19T01:35:28.378Z,99238.34
2023-01-19T01:37:57.761Z,99239.28
2023-01-19T01:40:24.350Z,99231.25
2023-01-19T01:42:50.929Z,99244.66
2023-01-19T01:45:31.638Z,99242.78
2023-01-19T01:48:03.913Z,99238.75
2023-01-19T01:50:33.828Z,99231.94
2023-01-19T01:53:07.599Z,99232.34
2023-01-19T01:55:40.804Z,99226.53
2023-01-19T01:58:10.512Z,99226.66
2023-01-19T02:00:38.857Z,99228.22
2023-01-19T02:03:06.808Z,99230.41
2023-01-19T02:05:34.633Z,99217.94
2023-01-19T02:08:04.501Z,99228.75
2023-01-19T02:10:31.197Z,99227.94
2023-01-19T02:12:58.704Z,99222.22
2023-01-19T02:15:25.292Z,99221.97
2023-01-19T02:17:51.805Z,99214.91
2023-01-19T02:20:23.938Z,99215.44
2023-01-19T02:22:51.778Z,99214.06
2023-01-19T02:25:20.179Z,99198.78
2023-01-19T02:27:47.911Z,99218.91
2023-01-19T02:30:15.217Z,99208.94
2023-01-19T02:32:41.827Z,99207.25
2023-01-19T02:35:12.974Z,99203.91
2023-01-19T02:37:41.204Z,99210.44
2023-01-19T02:40:11.914Z,99215.19
2023-01-19T02:42:43.311Z,99202.81
2023-01-19T02:45:11.687Z,99223.09
2023-01-19T02:47:39.023Z,99217.41
2023-01-19T02:50:36.380Z,99199.34
2023-01-19T02:53:12.788Z,99213.09
2023-01-19T02:55:40.822Z,99216.56
2023-01-19T02:58:14.956Z,99217.09
2023-01-19T03:00:51.698Z,99217.25
2023-01-19T03:03:29.493Z,99212.09
2023-01-19T03:06:03.286Z,99211.84
2023-01-19T03:08:41.461Z,99225.28
2023-01-19T03:11:10.228Z,99223.09
2023-01-19T03:13:44.677Z,99206.16
2023-01-19T03:16:17.133Z,99214.63
2023-01-19T03:18:49.477Z,99203.53
2023-01-19T03:21:18.153Z,99210.72
2023-01-19T03:23:46.626Z,99208.09
2023-01-19T03:26:17.873Z,99220.28
2023-01-19T03:28:47.333Z,99217.94
2023-01-19T03:31:17.799Z,99213.09
2023-01-19T03:33:48.908Z,99216.72
2023-01-19T03:36:23.334Z,99208.22
2023-01-19T03:38:51.944Z,99216.84
2023-01-19T03:41:21.931Z,99221.00
2023-01-19T03:43:51.575Z,99219.44
2023-01-19T03:46:19.715Z,99227.09
2023-01-19T03:48:47.355Z,99223.50
2023-01-19T03:51:15.650Z,99217.78
2023-01-19T03:53:42.330Z,99207.94
2023-01-19T03:56:17.185Z,99229.88
2023-01-19T03:58:43.654Z,99232.34
2023-01-19T04:01:11.706Z,99233.59
2023-01-19T04:03:38.215Z,99223.72
2023-01-19T04:06:04.934Z,99225.63
2023-01-19T04:08:31.414Z,99230.09
2023-01-19T04:10:58.243Z,99214.03
2023-01-19T04:13:24.746Z,99207.63
2023-01-19T04:15:51.243Z,99230.91
2023-01-19T04:18:20.024Z,99232.84
2023-01-19T04:20:46.463Z,99236.47
2023-01-19T04:23:12.907Z,99234.22
2023-01-19T04:25:40.683Z,99228.97
2023-01-19T04:28:07.093Z,99244.75
2023-01-19T04:30:33.888Z,99242.06
2023-01-19T04:33:00.697Z,99232.78
2023-01-19T04:35:28.939Z,99241.41
2023-01-19T04:37:55.386Z,99237.94
2023-01-19T04:40:21.933Z,99240.56
2023-01-19T04:42:48.394Z,99224.03
2023-01-19T04:45:15.384Z,99233.84
2023-01-19T04:47:41.906Z,99238.31
2023-01-19T04:50:09.791Z,99241.38
2023-01-19T04:52:38.430Z,99234.56
2023-01-19T04:55:06.528Z,99236.38
2023-01-19T04:57:32.983Z,99236.09
2023-01-19T04:59:59.573Z,99235.28
2023-01-19T05:02:26.535Z,99240.44
2023-01-19T05:04:53.026Z,99240.56
2023-01-19T05:07:19.528Z,99236.00
2023-01-19T05:09:47.678Z,99242.22
2023-01-19T05:12:14.223Z,99246.34
2023-01-19T05:14:41.036Z,99254.97
2023-01-19T05:17:07.791Z,99246.81
2023-01-19T05:19:34.368Z,99255.88
2023-01-19T05:22:01.911Z,99251.66
2023-01-19T05:24:28.400Z,99251.56
2023-01-19T05:26:56.294Z,99256.00
2023-01-19T05:29:22.808Z,99253.34
2023-01-19T05:31:49.341Z,99244.22
2023-01-19T05:34:15.924Z,99260.59
2023-01-19T05:36:42.581Z,99247.75
2023-01-19T05:39:09.209Z,99263.19
2023-01-19T05:41:35.924Z,99270.69
2023-01-19T05:44:04.114Z,99268.34
2023-01-19T05:46:30.629Z,99266.53
2023-01-19T05:48:57.143Z,99256.25
2023-01-19T05:51:23.616Z,99278.75
2023-01-19T05:53:50.136Z,99273.91
2023-01-19T05:56:16.664Z,99269.31
2023-01-19T05:58:43.190Z,99261.81
2023-01-19T06:01:11.108Z,99256.69
2023-01-19T06:03:37.630Z,99272.50
2023-01-19T06:06:04.749Z,99265.13
2023-01-19T06:08:31.216Z,99271.09
2023-01-19T06:10:57.649Z,99274.84
2023-01-19T06:13:24.200Z,99277.19
2023-01-19T06:15:56.808Z,99281.22
2023-01-19T06:18:24.676Z,99277.63
2023-01-19T06:20:51.368Z,99276.38
2023-01-19T06:23:17.973Z,99275.66
2023-01-19T06:25:44.453Z,99286.09
2023-01-19T06:28:10.880Z,99283.84
2023-01-19T06:30:37.336Z,99298.16
2023-01-19T06:33:04.033Z,99280.66
2023-01-19T06:35:31.895Z,99298.16
2023-01-19T06:37:58.392Z,99298.00
2023-01-19T06:40:24.925Z,99295.13
2023-01-19T06:42:51.426Z,99297.50
2023-01-19T06:45:17.845Z,99312.47
2023-01-19T06:47:46.940Z,99317.19
2023-01-19T06:50:13.232Z,99312.88
2023-01-19T06:52:41.017Z,99313.00
2023-01-19T06:55:08.309Z,99328.41
2023-01-19T06:57:34.771Z,99322.31
2023-01-19T07:00:01.265Z,99325.81
2023-01-19T07:02:28.699Z,99331.31
2023-01-19T07:04:55.299Z,99332.03
2023-01-19T07:07:21.862Z,99334.53
2023-01-19T07:09:49.718Z,99322.59
2023-01-19T07:12:20.452Z,99338.50
2023-01-19T07:14:47.087Z,99333.81
2023-01-19T07:17:13.551Z,99338.09
2023-01-19T07:19:40.003Z,99335.31
2023-01-19T07:22:06.787Z,99346.56
2023-01-19T07:24:33.277Z,99329.38
2023-01-19T07:27:01.423Z,99347.00
2023-01-19T07:29:28.942Z,99348.25
2023-01-19T07:31:55.486Z,99350.34
2023-01-19T07:34:21.924Z,99344.78
2023-01-19T07:36:48.902Z,99356.88
2023-01-19T07:39:15.634Z,99358.13
2023-01-19T07:41:42.110Z,99360.59
2023-01-19T07:44:09.980Z,99368.94
2023-01-19T07:46:36.569Z,99353.13
2023-01-19T07:49:03.041Z,99367.41
2023-01-19T07:51:29.559Z,99374.06
2023-01-19T07:53:56.026Z,99364.19
2023-01-19T07:56:22.452Z,99365.59
2023-01-19T07:58:48.902Z,99372.94
2023-01-19T08:01:16.811Z,99371.06
2023-01-19T08:03:43.674Z,99382.53
2023-01-19T08:06:19.222Z,99378.66
2023-01-19T08:08:45.703Z,99378.66
2023-01-19T08:11:12.136Z,99388.94
2023-01-19T08:13:38.610Z,99389.50
2023-01-19T08:16:05.982Z,99391.06
2023-01-19T08:18:33.914Z,99380.19
2023-01-19T08:21:00.653Z,99406.16
2023-01-19T08:23:27.451Z,99405.63
2023-01-19T08:25:54.238Z,99415.34
2023-01-19T08:28:20.896Z,99423.56
2023-01-19T08:30:47.964Z,99422.16
2023-01-19T08:33:14.393Z,99418.44
2023-01-19T08:35:43.513Z,99429.00
2023-01-19T08:38:10.303Z,99434.41
2023-01-19T08:40:38.316Z,99422.88
2023-01-19T08:43:06.307Z,99432.38
2023-01-19T08:45:32.991Z,99426.53
2023-01-19T08:47:59.943Z,99434.84
2023-01-19T08:50:26.749Z,99452.34
2023-01-19T08:52:56.279Z,99452.34
2023-01-19T08:55:22.832Z,99450.16
2023-01-19T08:57:50.834Z,99454.88
2023-01-19T09:00:18.406Z,99451.53
2023-01-19T09:02:45.012Z,99459.03
2023-01-19T09:05:11.470Z,99462.94
2023-01-19T09:07:38.000Z,99463.91
2023-01-19T09:10:06.793Z,99464.31
2023-01-19T09:12:33.585Z,99462.53
2023-01-19T09:15:00.037Z,99471.97
2023-01-19T09:17:26.524Z,99466.56
2023-01-19T09:19:53.056Z,99465.44
2023-01-19T09:22:19.541Z,99471.84
2023-01-19T09:24:46.007Z,99474.06
2023-01-19T09:27:13.820Z,99472.81
2023-01-19T09:29:40.305Z,99467.09
2023-01-19T09:32:06.792Z,99478.09
2023-01-19T09:34:33.533Z,99485.31
2023-01-19T09:37:00.102Z,99484.75
2023-01-19T09:39:26.671Z,99487.00
2023-01-19T09:42:07.210Z,99504.66
2023-01-19T09:44:35.554Z,99502.69
2023-01-19T09:47:03.452Z,99501.88
2023-01-19T09:49:34.919Z,99498.22
2023-01-19T09:52:01.772Z,99501.28
2023-01-19T09:54:34.935Z,99486.09
2023-01-19T09:57:02.080Z,99502.53
2023-01-19T09:59:30.489Z,99511.56
2023-01-19T10:02:13.518Z,99486.41
2023-01-19T10:04:40.995Z,99513.09
2023-01-19T10:07:23.181Z,99516.88
2023-01-19T10:10:12.434Z,99518.00
2023-01-19T10:12:48.645Z,99514.63
2023-01-19T10:15:24.981Z,99523.53
2023-01-19T10:18:08.658Z,99513.13
2023-01-19T10:20:38.003Z,99519.66
2023-01-19T10:23:15.745Z,99526.19
2023-01-19T10:25:42.872Z,99528.56
2023-01-19T10:28:12.867Z,99528.28
2023-01-19T10:30:42.325Z,99533.41
2023-01-19T10:33:13.208Z,99534.69
2023-01-19T10:35:39.653Z,99538.28
2023-01-19T10:38:06.261Z,99539.25
2023-01-19T10:40:34.702Z,99534.53
2023-01-19T10:43:01.675Z,99533.81
2023-01-19T10:45:31.131Z,99536.19
2023-01-19T10:47:59.714Z,99539.06
2023-01-19T10:50:29.754Z,99537.72
2023-01-19T10:52:58.428Z,99540.84
2023-01-19T10:55:27.881Z,99532.25
2023-01-19T10:57:54.393Z,99541.09
2023-01-19T11:00:33.192Z,99539.72
2023-01-19T11:03:00.931Z,99531.06
2023-01-19T11:05:31.033Z,99537.97
2023-01-19T11:07:57.849Z,99524.16
2023-01-19T11:10:26.161Z,99527.44
2023-01-19T11:13:02.519Z,99544.06
2023-01-19T11:15:33.533Z,99543.88
2023-01-19T11:18:02.535Z,99550.25
2023-01-19T11:20:35.535Z,99547.59
2023-01-19T11:23:08.032Z,99555.66
2023-01-19T11:25:36.522Z,99553.16
2023-01-19T11:28:03.471Z,99556.38
2023-01-19T11:30:30.691Z,99537.66
2023-01-19T11:32:57.360Z,99554.84
2023-01-19T11:35:37.920Z,99553.31
2023-01-19T11:38:17.963Z,99554.16
2023-01-19T11:40:51.722Z,99549.56
2023-01-19T11:43:19.271Z,99546.44
2023-01-19T11:45:46.056Z,99547.38
2023-01-19T11:48:22.249Z,99544.53
2023-01-19T11:50:50.478Z,99551.72
2023-01-19T11:53:21.786Z,99550.25
2023-01-19T11:55:52.377Z,99544.56
2023-01-19T11:58:19.852Z,99549.47
2023-01-19T12:00:51.843Z,99555.06
2023-01-19T12:03:24.355Z,99555.09
2023-01-19T12:05:55.226Z,99550.56
2023-01-19T12:08:25.956Z,99560.06
2023-01-19T12:10:55.591Z,99552.91
2023-01-19T12:13:23.734Z,99555.69
2023-01-19T12:15:54.618Z,99559.56
2023-01-19T12:18:23.993Z,99554.59
2023-01-19T12:20:53.685Z,99557.25
2023-01-19T12:23:32.402Z,99560.13
2023-01-19T12:26:16.228Z,99547.25
2023-01-19T12:28:46.456Z,99562.31
2023-01-19T12:31:16.487Z,99558.56
2023-01-19T12:33:43.416Z,99573.22
2023-01-19T12:36:36.307Z,99563.22
2023-01-19T12:39:05.080Z,99547.91
2023-01-19T12:41:33.971Z,99564.88
2023-01-19T12:44:24.336Z,99570.25
2023-01-19T12:46:55.100Z,99569.84
2023-01-19T12:49:26.587Z,99564.38
2023-01-19T12:52:10.692Z,99564.00
2023-01-19T12:54:40.455Z,99557.59
2023-01-19T12:57:17.468Z,99558.13
2023-01-19T12:59:44.583Z,99558.00
2023-01-19T13:02:50.897Z,99560.38
2023-01-19T13:05:45.210Z,99552.38
2023-01-19T13:08:24.713Z,99557.66
2023-01-19T13:11:20.944Z,99552.63
2023-01-19T13:14:24.055Z,99567.97
2023-01-19T13:17:29.870Z,99562.53
2023-01-19T13:20:02.805Z,99562.31
2023-01-19T13:23:02.124Z,99571.47
2023-01-19T13:25:33.304Z,99567.34
2023-01-19T13:28:00.469Z,99574.50
2023-01-19T13:30:29.439Z,99546.69
2023-01-19T13:33:01.107Z,99575.84
2023-01-19T13:35:27.870Z,99576.63
2023-01-19T13:37:54.631Z,99586.81
2023-01-19T13:40:24.082Z,99568.91
2023-01-19T13:42:53.851Z,99584.22
2023-01-19T13:45:29.117Z,99574.84
2023-01-19T13:47:57.977Z,99569.91
2023-01-19T13:50:27.070Z,99571.31
2023-01-19T13:52:53.770Z,99575.53
2023-01-19T13:55:20.571Z,99576.84
2023-01-19T13:57:48.652Z,99581.75
2023-01-19T14:00:20.481Z,99582.31
2023-01-19T14:02:56.519Z,99581.88
2023-01-19T14:05:26.525Z,99578.63
2023-01-19T14:08:03.976Z,99593.44
2023-01-19T14:10:32.164Z,99588.25
2023-01-19T14:12:59.832Z,99596.16
2023-01-19T14:15:28.541Z,99601.16
2023-01-19T14:18:22.939Z,99594.88
2023-01-19T14:20:55.357Z,99609.00
2023-01-19T14:23:42.880Z,99593.56
2023-01-19T14:26:40.066Z,99607.72
2023-01-19T14:29:27.199Z,99604.72
2023-01-19T14:32:15.902Z,99599.97
2023-01-19T14:34:45.362Z,99610.56
2023-01-19T14:37:20.272Z,99590.66
2023-01-19T14:39:52.239Z,99571.84
2023-01-19T14:42:23.680Z,99597.22
2023-01-19T14:44:52.702Z,99589.81
2023-01-19T14:47:29.765Z,99584.28
2023-01-19T14:49:59.718Z,99599.78
2023-01-19T14:52:31.127Z,99604.72
2023-01-19T14:54:59.019Z,99606.00
2023-01-19T14:57:25.911Z,99616.84
2023-01-19T14:59:52.464Z,99621.28
2023-01-19T15:02:18.980Z,99623.53
2023-01-19T15:04:47.291Z,99591.69
2023-01-19T15:07:18.303Z,99628.69
2023-01-19T15:09:45.999Z,99626.47
2023-01-19T15:12:17.388Z,99622.31
2023-01-19T15:14:44.163Z,99632.94
2023-01-19T15:17:17.087Z,99622.91
2023-01-19T15:19:43.666Z,99629.91
2023-01-19T15:22:12.686Z,99638.41
2023-01-19T15:24:39.212Z,99630.91
2023-01-19T15:27:05.747Z,99635.97
2023-01-19T15:29:33.608Z,99634.47
2023-01-19T15:32:00.160Z,99632.09
2023-01-19T15:34:26.772Z,99635.19
2023-01-19T15:36:53.255Z,99641.56
2023-01-19T15:39:23.560Z,99645.50
2023-01-19T15:41:49.984Z,99625.75
2023-01-19T15:44:16.512Z,99650.41
2023-01-19T15:46:42.986Z,99638.56
2023-01-19T15:49:09.526Z,99640.47
2023-01-19T15:51:51.074Z,99646.88
2023-01-19T15:54:18.374Z,99652.34
2023-01-19T15:56:46.359Z,99645.22
2023-01-19T15:59:13.076Z,99644.41
2023-01-19T16:01:39.989Z,99647.03
2023-01-19T16:04:08.158Z,99648.03
2023-01-19T16:06:35.182Z,99655.41
2023-01-19T16:09:02.044Z,99656.66
2023-01-19T16:11:30.636Z,99644.25
2023-01-19T16:13:59.168Z,99638.00
2023-01-19T16:16:26.092Z,99665.41
2023-01-19T16:18:52.610Z,99668.22
2023-01-19T16:21:19.121Z,99666.69
2023-01-19T16:23:45.761Z,99668.22
2023-01-19T16:26:29.824Z,99669.06
2023-01-19T16:28:59.423Z,99664.91
2023-01-19T16:31:26.633Z,99677.13
2023-01-19T16:33:53.198Z,99676.59
2023-01-19T16:36:22.683Z,99681.75
2023-01-19T16:38:49.621Z,99682.44
2023-01-19T16:41:16.194Z,99674.38
2023-01-19T16:43:42.944Z,99683.81
2023-01-19T16:46:18.859Z,99660.72
2023-01-19T16:48:45.357Z,99678.94
2023-01-19T16:51:11.817Z,99684.66
2023-01-19T16:53:38.257Z,99688.56
2023-01-19T16:56:05.574Z,99686.72
2023-01-19T16:58:32.678Z,99698.88
2023-01-19T17:00:59.304Z,99698.13
2023-01-19T17:03:27.262Z,99696.03
2023-01-19T17:05:53.687Z,99705.66
2023-01-19T17:08:20.551Z,99704.69
2023-01-19T17:10:47.460Z,99699.25
2023-01-19T17:13:13.922Z,99703.84
2023-01-19T17:15:40.398Z,99704.41
2023-01-19T17:18:07.270Z,99709.72
2023-01-19T17:20:35.074Z,99705.66
2023-01-19T17:23:01.491Z,99707.75
2023-01-19T17:25:28.015Z,99714.00
2023-01-19T17:27:54.606Z,99714.28
2023-01-19T17:30:21.303Z,99712.22
2023-01-19T17:32:47.727Z,99721.13
2023-01-19T17:35:14.274Z,99718.47
2023-01-19T17:37:42.067Z,99728.06
2023-01-19T17:40:10.235Z,99723.19
2023-01-19T17:42:39.270Z,99732.91
2023-01-19T17:45:06.691Z,99732.53
2023-01-19T17:47:33.186Z,99738.34
2023-01-19T17:49:59.634Z,99740.31
2023-01-19T17:52:26.098Z,99746.41
2023-01-19T17:54:53.883Z,99738.56
2023-01-19T17:57:20.331Z,99736.66
2023-01-19T17:59:46.991Z,99745.25
2023-01-19T18:02:13.572Z,99741.63
2023-01-19T18:04:40.142Z,99740.56
2023-01-19T18:07:06.592Z,99740.63
2023-01-19T18:09:33.551Z,99745.44
2023-01-19T18:12:01.391Z,99736.91
2023-01-19T18:14:27.835Z,99741.09
2023-01-19T18:16:54.338Z,99738.72
2023-01-19T18:19:20.828Z,99735.09
2023-01-19T18:21:47.252Z,99733.75
2023-01-19T18:24:13.698Z,99738.63
2023-01-19T18:26:40.123Z,99735.81
2023-01-19T18:29:09.750Z,99743.09
2023-01-19T18:31:36.291Z,99743.41
2023-01-19T18:34:02.871Z,99755.47
2023-01-19T18:36:29.641Z,99742.16
2023-01-19T18:38:56.084Z,99754.47
2023-01-19T18:41:22.550Z,99755.31
2023-01-19T18:43:49.547Z,99743.75
2023-01-19T18:46:17.998Z,99753.31
2023-01-19T18:48:44.625Z,99747.78
2023-01-19T18:51:12.963Z,99751.38
2023-01-19T18:53:40.186Z,99757.75
2023-01-19T18:56:07.961Z,99753.97
2023-01-19T18:58:37.011Z,99761.50
2023-01-19T19:01:03.828Z,99764.63
2023-01-19T19:03:31.763Z,99770.19
2023-01-19T19:06:02.659Z,99770.63
2023-01-19T19:08:29.301Z,99761.16
2023-01-19T19:10:56.068Z,99763.41
2023-01-19T19:13:22.598Z,99768.06
2023-01-19T19:15:49.149Z,99775.53
2023-01-19T19:18:15.648Z,99772.22
2023-01-19T19:20:44.525Z,99775.13
2023-01-19T19:23:11.775Z,99776.09
2023-01-19T19:25:38.307Z,99771.06
2023-01-19T19:28:05.303Z,99764.13
2023-01-19T19:30:31.808Z,99770.97
2023-01-19T19:32:58.311Z,99775.09
2023-01-19T19:35:25.442Z,99764.63
2023-01-19T19:37:53.276Z,99781.88
2023-01-19T19:40:19.932Z,99786.28
2023-01-19T19:42:46.383Z,99789.75
2023-01-19T19:45:12.891Z,99776.66
2023-01-19T19:47:41.389Z,99782.94
2023-01-19T19:50:09.060Z,99785.56
2023-01-19T19:52:38.214Z,99786.78
2023-01-19T19:55:07.081Z,99786.34
2023-01-19T19:57:34.001Z,99795.81
2023-01-19T20:00:00.659Z,99790.44
2023-01-19T20:02:27.523Z,99787.03
2023-01-19T20:04:54.068Z,99770.63
2023-01-19T20:07:20.947Z,99785.03
2023-01-19T20:09:47.419Z,99784.78
2023-01-19T20:12:15.242Z,99800.13
2023-01-19T20:14:41.708Z,99798.81
2023-01-19T20:17:08.167Z,99804.81
2023-01-19T20:19:34.613Z,99808.19
2023-01-19T20:22:01.068Z,99812.50
2023-01-19T20:24:27.816Z,99814.84
2023-01-19T20:26:54.289Z,99805.16
2023-01-19T20:29:22.108Z,99811.22
2023-01-19T20:31:53.292Z,99816.53
2023-01-19T20:34:23.298Z,99817.13
2023-01-19T20:36:49.936Z,99824.91
2023-01-19T20:39:17.224Z,99826.47
2023-01-19T20:41:43.835Z,99825.97
2023-01-19T20:44:11.159Z,99825.53
2023-01-19T20:46:39.582Z,99821.22
2023-01-19T20:49:06.702Z,99832.09
2023-01-19T20:51:33.952Z,99824.06
2023-01-19T20:54:00.476Z,99834.75
2023-01-19T20:56:26.952Z,99816.59
2023-01-19T20:58:53.420Z,99843.28
2023-01-19T21:01:22.023Z,99842.69
2023-01-19T21:03:50.613Z,99843.91
2023-01-19T21:06:17.909Z,99850.03
2023-01-19T21:08:44.961Z,99856.91
2023-01-19T21:11:12.041Z,99854.44
2023-01-19T21:13:39.096Z,99861.97
2023-01-19T21:16:06.689Z,99862.00
2023-01-19T21:18:33.207Z,99860.09
2023-01-19T21:21:01.031Z,99874.84
2023-01-19T21:23:27.758Z,99876.50
2023-01-19T21:25:56.440Z,99880.00
2023-01-19T21:28:23.690Z,99880.97
2023-01-19T21:30:50.604Z,99890.00
2023-01-19T21:33:18.001Z,99884.47
2023-01-19T21:35:50.306Z,99889.13
2023-01-19T21:38:18.311Z,99891.31
2023-01-19T21:40:44.977Z,99900.78
2023-01-19T21:43:11.502Z,99900.44
2023-01-19T21:45:38.038Z,99904.88
2023-01-19T21:48:04.682Z,99909.63
2023-01-19T21:50:31.518Z,99906.91
2023-01-19T21:52:57.987Z,99907.59
2023-01-19T21:55:25.779Z,99911.19
2023-01-19T21:57:52.839Z,99896.34
2023-01-19T22:00:19.916Z,99911.19
2023-01-19T22:02:58.588Z,99921.63
2023-01-19T22:05:29.515Z,99925.44
2023-01-19T22:07:56.002Z,99927.84
2023-01-19T22:10:22.495Z,99932.53
2023-01-19T22:12:50.351Z,99930.63
2023-01-19T22:15:17.179Z,99934.22
2023-01-19T22:17:43.743Z,99912.41
2023-01-19T22:20:11.064Z,99937.56
2023-01-19T22:22:37.615Z,99936.72
2023-01-19T22:25:05.996Z,99939.22
2023-01-19T22:27:32.545Z,99939.81
2023-01-19T22:30:00.377Z,99917.06
2023-01-19T22:32:26.859Z,99920.16
2023-01-19T22:34:53.423Z,99924.00
2023-01-19T22:37:19.924Z,99941.97
2023-01-19T22:39:46.365Z,99948.09
2023-01-19T22:42:12.966Z,99934.81
2023-01-19T22:44:39.514Z,99949.31
2023-01-19T22:47:07.463Z,99959.84
2023-01-19T22:49:34.699Z,99958.41
2023-01-19T22:52:01.177Z,99955.78
2023-01-19T22:54:27.665Z,99939.47
2023-01-19T22:56:54.242Z,99959.00
2023-01-19T22:59:20.740Z,99951.94
2023-01-19T23:01:49.301Z,99954.09
2023-01-19T23:04:17.125Z,99962.00
2023-01-19T23:06:44.011Z,99965.34
2023-01-19T23:09:13.111Z,99959.38
2023-01-19T23:11:40.436Z,99963.22
2023-01-19T23:14:07.375Z,99964.06
2023-01-19T23:16:34.033Z,99971.38
2023-01-19T23:19:00.347Z,99971.84
2023-01-19T23:21:28.680Z,99982.63
2023-01-19T23:23:55.810Z,99980.94
2023-01-19T23:26:22.515Z,99980.44
2023-01-19T23:28:52.873Z,99983.91
2023-01-19T23:31:20.573Z,99979.50
2023-01-19T23:33:46.905Z,99984.31
2023-01-19T23:36:13.397Z,99996.53
2023-01-19T23:38:41.093Z,99990.28
2023-01-19T23:41:07.827Z,99995.56
2023-01-19T23:43:34.419Z,99989.44
2023-01-19T23:46:01.943Z,99996.06
2023-01-19T23:48:28.241Z,99993.75
2023-01-19T23:50:54.874Z,99991.97
2023-01-19T23:53:21.180Z,100002.03
2023-01-19T23:55:48.796Z,100008.53
2023-01-19T23:58:15.121Z,100007.53
